createdAt,value
2023-03-20T00:02:01.378Z,22.50
2023-03-20T00:04:29.711Z,18.90
2023-03-20T00:06:57.068Z,20.90
2023-03-20T00:09:25.869Z,23.83
2023-03-20T00:11:55.742Z,23.08
2023-03-20T00:14:25.015Z,24.27
2023-03-20T00:16:52.775Z,25.60
2023-03-20T00:19:29.565Z,24.27
2023-03-20T00:21:57.785Z,27.92
2023-03-20T00:24:25.881Z,25.75
2023-03-20T00:26:54.104Z,22.25
2023-03-20T00:29:27.116Z,26.02
2023-03-20T00:31:55.635Z,29.92
2023-03-20T00:34:25.991Z,23.02
2023-03-20T00:36:54.195Z,21.52
2023-03-20T00:39:22.111Z,22.85
2023-03-20T00:42:00.802Z,19.42
2023-03-20T00:44:41.374Z,21.95
2023-03-20T00:47:19.240Z,18.77
2023-03-20T00:49:48.497Z,22.67
2023-03-20T00:52:17.804Z,49.55
2023-03-20T00:54:45.373Z,27.55
2023-03-20T00:57:19.517Z,22.45
2023-03-20T00:59:57.006Z,20.27
2023-03-20T01:02:29.171Z,22.05
2023-03-20T01:04:56.504Z,24.52
2023-03-20T01:07:24.794Z,21.40
2023-03-20T01:09:52.846Z,19.45
2023-03-20T01:12:20.202Z,20.70
2023-03-20T01:14:52.328Z,20.52
2023-03-20T01:17:21.697Z,24.25
2023-03-20T01:19:49.527Z,19.20
2023-03-20T01:22:19.984Z,24.60
2023-03-20T01:24:47.795Z,19.98
2023-03-20T01:27:20.427Z,24.40
2023-03-20T01:29:48.172Z,20.88
2023-03-20T01:32:20.459Z,29.60
2023-03-20T01:34:50.047Z,27.05
2023-03-20T01:37:28.068Z,26.77
2023-03-20T01:39:59.689Z,25.95
2023-03-20T01:42:27.755Z,26.85
2023-03-20T01:44:55.504Z,24.88
2023-03-20T01:47:25.100Z,26.98
2023-03-20T01:50:22.523Z,23.88
2023-03-20T01:52:57.924Z,23.63
2023-03-20T01:55:25.624Z,29.67
2023-03-20T01:58:00.730Z,26.63
2023-03-20T02:00:28.028Z,27.20
2023-03-20T02:02:55.634Z,27.98
2023-03-20T02:05:49.583Z,32.10
2023-03-20T02:08:28.212Z,31.30
2023-03-20T02:10:58.960Z,29.15
2023-03-20T02:16:08.588Z,27.95
2023-03-20T02:18:59.257Z,29.70
2023-03-20T02:22:04.552Z,27.08
2023-03-20T02:24:51.287Z,26.80
2023-03-20T02:27:25.544Z,27.73
2023-03-20T02:30:32.196Z,28.23
2023-03-20T02:33:11.819Z,27.75
2023-03-20T02:36:16.242Z,31.10
2023-03-20T02:38:58.043Z,32.72
2023-03-20T02:41:42.592Z,32.90
2023-03-20T02:44:14.694Z,39.80
2023-03-20T02:47:06.474Z,31.80
2023-03-20T02:49:40.748Z,37.45
2023-03-20T02:52:25.713Z,30.98
2023-03-20T02:55:16.497Z,33.40
2023-03-20T02:57:49.695Z,36.55
2023-03-20T03:00:28.545Z,47.42
2023-03-20T03:03:23.106Z,29.77
2023-03-20T03:05:56.442Z,111.28
2023-03-20T03:08:28.874Z,38.72
2023-03-20T03:11:09.025Z,36.28
2023-03-20T03:13:44.499Z,35.25
2023-03-20T03:16:21.412Z,32.22
2023-03-20T03:18:55.233Z,29.58
2023-03-20T03:21:27.108Z,23.65
2023-03-20T03:23:54.723Z,25.48
2023-03-20T03:26:27.764Z,28.02
2023-03-20T03:29:01.780Z,26.10
2023-03-20T03:31:30.234Z,26.33
2023-03-20T03:34:00.407Z,27.75
2023-03-20T03:36:36.553Z,22.77
2023-03-20T03:39:10.045Z,26.15
2023-03-20T03:44:08.063Z,22.58
2023-03-20T03:46:52.277Z,24.42
2023-03-20T03:49:25.394Z,24.48
2023-03-20T03:51:57.120Z,26.13
2023-03-20T03:54:38.215Z,24.58
2023-03-20T03:57:42.534Z,26.30
2023-03-20T04:00:19.584Z,38.88
2023-03-20T04:02:50.079Z,32.97
2023-03-20T04:05:20.682Z,29.50
2023-03-20T04:07:48.965Z,31.88
2023-03-20T04:10:17.716Z,33.63
2023-03-20T04:12:45.602Z,29.02
2023-03-20T04:15:14.583Z,30.63
2023-03-20T04:17:42.826Z,33.15
2023-03-20T04:20:12.335Z,36.72
2023-03-20T04:22:40.519Z,33.67
2023-03-20T04:25:20.295Z,51.60
2023-03-20T04:27:48.078Z,39.58
2023-03-20T04:30:29.890Z,37.45
2023-03-20T04:33:22.837Z,41.00
2023-03-20T04:36:07.068Z,39.97
2023-03-20T04:38:34.209Z,44.72
2023-03-20T04:41:02.153Z,39.97
2023-03-20T04:43:29.394Z,51.55
2023-03-20T04:45:56.671Z,50.47
2023-03-20T04:48:23.990Z,44.33
2023-03-20T04:50:51.556Z,38.78
2023-03-20T04:53:24.883Z,46.03
2023-03-20T04:55:53.631Z,39.42
2023-03-20T04:58:20.870Z,43.60
2023-03-20T05:00:48.118Z,36.10
2023-03-20T05:03:15.291Z,39.42
2023-03-20T05:05:42.540Z,44.38
2023-03-20T05:08:10.068Z,46.28
2023-03-20T05:10:38.674Z,47.03
2023-03-20T05:13:28.553Z,57.00
2023-03-20T05:16:16.313Z,45.72
2023-03-20T05:18:57.591Z,53.88
2023-03-20T05:21:44.998Z,51.17
2023-03-20T05:24:17.874Z,61.20
2023-03-20T05:26:50.747Z,73.03
2023-03-20T05:29:17.917Z,68.90
2023-03-20T05:32:05.692Z,65.32
2023-03-20T05:34:59.788Z,75.40
2023-03-20T05:37:53.058Z,79.05
2023-03-20T05:40:43.437Z,86.53
2023-03-20T05:43:25.975Z,518.45
2023-03-20T05:46:09.179Z,275.80
2023-03-20T05:48:56.679Z,98.07
2023-03-20T05:51:43.713Z,146.85
2023-03-20T05:54:23.911Z,259.27
2023-03-20T05:57:09.678Z,118.35
2023-03-20T05:59:57.104Z,102.13
2023-03-20T06:02:27.373Z,102.75
2023-03-20T06:05:04.695Z,106.43
2023-03-20T06:07:40.582Z,102.80
2023-03-20T06:10:12.068Z,123.68
2023-03-20T06:12:39.254Z,87.10
2023-03-20T06:15:07.104Z,88.90
2023-03-20T06:17:38.883Z,91.60
2023-03-20T06:20:06.717Z,85.70
2023-03-20T06:22:33.824Z,75.55
2023-03-20T06:25:01.585Z,79.43
2023-03-20T06:27:34.806Z,71.80
2023-03-20T06:30:02.160Z,78.55
2023-03-20T06:32:33.141Z,73.60
2023-03-20T06:35:02.893Z,67.32
2023-03-20T06:37:30.015Z,70.00
2023-03-20T06:40:05.612Z,58.83
2023-03-20T06:42:33.808Z,61.70
2023-03-20T06:45:01.421Z,57.28
2023-03-20T06:47:41.829Z,67.35
2023-03-20T06:50:10.467Z,62.63
2023-03-20T06:52:38.023Z,75.18
2023-03-20T06:55:25.241Z,83.10
2023-03-20T06:57:52.608Z,60.38
2023-03-20T07:00:21.737Z,60.67
2023-03-20T07:02:49.139Z,56.83
2023-03-20T07:05:17.681Z,57.63
2023-03-20T07:07:45.366Z,46.03
2023-03-20T07:10:12.707Z,47.38
2023-03-20T07:12:41.672Z,43.03
2023-03-20T07:15:09.584Z,41.53
2023-03-20T07:17:37.509Z,34.97
2023-03-20T07:20:05.281Z,36.03
2023-03-20T07:22:32.721Z,31.33
2023-03-20T07:25:42.259Z,36.53
2023-03-20T07:28:13.811Z,35.40
2023-03-20T07:30:44.224Z,44.85
2023-03-20T07:33:11.944Z,30.60
2023-03-20T07:35:39.943Z,32.15
2023-03-20T07:38:08.067Z,34.22
2023-03-20T07:40:42.810Z,37.63
2023-03-20T07:43:12.961Z,41.80
2023-03-20T07:46:05.239Z,37.97
2023-03-20T07:48:34.824Z,42.20
2023-03-20T07:51:02.357Z,42.47
2023-03-20T07:53:29.931Z,37.80
2023-03-20T07:55:57.002Z,36.85
2023-03-20T07:58:24.168Z,38.72
2023-03-20T08:00:51.234Z,34.13
2023-03-20T08:03:18.562Z,44.85
2023-03-20T08:05:47.306Z,36.22
2023-03-20T08:08:15.013Z,38.33
2023-03-20T08:10:42.299Z,35.67
2023-03-20T08:13:09.490Z,37.17
2023-03-20T08:15:36.710Z,47.63
2023-03-20T08:18:04.063Z,36.08
2023-03-20T08:20:31.870Z,30.90
2023-03-20T08:22:59.128Z,28.10
2023-03-20T08:25:26.478Z,24.65
2023-03-20T08:27:53.600Z,29.05
2023-03-20T08:30:20.977Z,27.77
2023-03-20T08:32:48.284Z,28.92
2023-03-20T08:35:31.533Z,24.20
2023-03-20T08:37:59.637Z,31.02
2023-03-20T08:40:26.930Z,26.10
2023-03-20T08:42:54.061Z,27.90
2023-03-20T08:45:21.749Z,24.70
2023-03-20T08:47:49.019Z,24.48
2023-03-20T08:50:16.300Z,31.23
2023-03-20T08:52:44.389Z,26.98
2023-03-20T08:55:12.594Z,26.48
2023-03-20T08:57:40.599Z,26.70
2023-03-20T09:00:10.379Z,25.33
2023-03-20T09:02:37.768Z,23.35
2023-03-20T09:05:05.199Z,26.88
2023-03-20T09:07:32.350Z,25.17
2023-03-20T09:09:59.651Z,26.85
2023-03-20T09:12:27.039Z,28.13
2023-03-20T09:14:54.464Z,28.73
2023-03-20T09:17:21.560Z,33.53
2023-03-20T09:19:48.781Z,32.83
2023-03-20T09:22:18.251Z,32.63
2023-03-20T09:24:46.136Z,31.42
2023-03-20T09:27:16.477Z,30.95
2023-03-20T09:29:43.923Z,31.08
2023-03-20T09:32:15.790Z,27.98
2023-03-20T09:34:43.277Z,23.23
2023-03-20T09:37:10.869Z,22.88
2023-03-20T09:39:37.996Z,27.35
2023-03-20T09:42:42.673Z,29.00
2023-03-20T09:45:20.656Z,26.27
2023-03-20T09:47:56.791Z,23.17
2023-03-20T09:50:33.346Z,24.08
2023-03-20T09:53:25.375Z,23.30
2023-03-20T09:55:54.478Z,29.48
2023-03-20T09:58:35.696Z,27.98
2023-03-20T10:01:06.748Z,31.13
2023-03-20T10:03:47.465Z,47.08
2023-03-20T10:06:16.960Z,37.22
2023-03-20T10:08:45.510Z,39.05
2023-03-20T10:11:34.642Z,44.20
2023-03-20T10:14:25.099Z,47.58
2023-03-20T10:16:52.074Z,47.55
2023-03-20T10:19:22.305Z,46.80
2023-03-20T10:21:58.156Z,46.67
2023-03-20T10:24:31.392Z,39.35
2023-03-20T10:27:06.086Z,39.05
2023-03-20T10:29:46.786Z,33.00
2023-03-20T10:32:28.960Z,30.83
2023-03-20T10:35:22.186Z,34.78
2023-03-20T10:38:15.020Z,27.38
2023-03-20T10:40:43.721Z,29.30
2023-03-20T10:43:24.482Z,28.00
2023-03-20T10:46:05.523Z,28.00
2023-03-20T10:49:01.862Z,24.00
2023-03-20T10:51:49.536Z,22.58
2023-03-20T10:54:31.506Z,26.02
2023-03-20T10:57:05.806Z,23.85
2023-03-20T10:59:42.594Z,26.30
2023-03-20T11:02:15.746Z,25.30
2023-03-20T11:04:43.449Z,23.20
2023-03-20T11:07:25.605Z,21.90
2023-03-20T11:10:11.386Z,22.45
2023-03-20T11:12:47.760Z,20.60
2023-03-20T11:15:23.291Z,19.30
2023-03-20T11:17:59.465Z,19.40
2023-03-20T11:20:32.477Z,20.33
2023-03-20T11:23:04.458Z,23.73
2023-03-20T11:25:38.840Z,19.77
2023-03-20T11:28:25.331Z,23.48
2023-03-20T11:31:04.888Z,22.48
2023-03-20T11:33:37.902Z,19.83
2023-03-20T11:36:33.077Z,24.42
2023-03-20T11:39:13.135Z,20.90
2023-03-20T11:41:46.183Z,20.63
2023-03-20T11:44:31.548Z,23.95
2023-03-20T11:47:05.358Z,23.65
2023-03-20T11:49:34.938Z,19.70
2023-03-20T11:52:14.249Z,18.92
2023-03-20T11:54:48.468Z,16.67
2023-03-20T11:57:39.122Z,19.15
2023-03-20T12:00:12.049Z,17.85
2023-03-20T12:02:41.874Z,16.35
2023-03-20T12:05:33.192Z,15.15
2023-03-20T12:08:06.480Z,12.88
2023-03-20T12:10:39.666Z,16.15
2023-03-20T12:13:24.344Z,17.77
2023-03-20T12:15:57.856Z,12.93
2023-03-20T12:21:12.252Z,13.70
2023-03-20T12:23:46.019Z,12.82
2023-03-20T12:26:36.581Z,12.38
2023-03-20T12:29:40.631Z,13.10
